Kezdőlap
METAR-TAF:

METAR-TAF

Repülőterek :

Illinois Valley Regional Airport (Walter A. Duncan Field)

Peru-LaSalle, Illinois, Amerikai Egyesült Államok

földrajzi szélesség: 41-21-07N, földrajzi hosszúság: 089-09-11W, magasság: 199 m

Jelenlegi meteorológiai megfigyelések

A jelentés 34 perccel ezelõtt készült, 08:35 UTC
Nyugati szél 7 kt
Hőmérséklet -5°C
Páratartalom 79%
Légköri nyomás 1020 hPa
Látótávolság: 16.1 km
Derült ég

METAR: KVYS 270835Z AUTO 28007KT 10SM CLR M05/M08 A3012 RMK AO2 T10461078

Idő: 03:09 (09:09 UTC)


TAF: hiányzik

Meteorológiai megfigyelések és előrejelzések több, mint 4000 repülőtéren (METAR és TAF jelentéseket).

A térképen piros és sárga pontok jelzik az elérhető meteorológiai állomásokat.

Mozgassa az egeret a pont fölött, hogy megjelenjen az állomás neve.

Azután kattintson az időjárási megfigyelések és előrejelzések megtekintéséhez.

A térkép megváltoztatása: kattintson a fekete keresztel jelölt zöld gombra ráközelítéshez, a vonallal jelölt zöld gombra távolításhoz, vagy a zöld nyilakra a szomszédos térképek eléréséhez.


METAR-TAF: